sensor_id;sensor_type;location;lat;lon;timestamp;pressure;altitude;pressure_sealevel;temperature;humidity
40940;BME280;26666;50.156;7.700;2022-08-19T00:00:45;100160.31;;;19.83;87.22
40940;BME280;26666;50.156;7.700;2022-08-19T00:05:47;100153.91;;;19.84;86.84
40940;BME280;26666;50.156;7.700;2022-08-19T00:10:48;100143.84;;;19.65;87.82
40940;BME280;26666;50.156;7.700;2022-08-19T00:15:50;100154.34;;;19.88;87.75
40940;BME280;26666;50.156;7.700;2022-08-19T00:20:51;100153.69;;;19.79;87.57
40940;BME280;26666;50.156;7.700;2022-08-19T00:25:53;100163.91;;;19.97;87.94
40940;BME280;26666;50.156;7.700;2022-08-19T00:30:55;100151.56;;;20.03;87.68
40940;BME280;26666;50.156;7.700;2022-08-19T00:35:56;100151.13;;;20.06;87.63
40940;BME280;26666;50.156;7.700;2022-08-19T00:40:58;100152.28;;;19.83;87.98
40940;BME280;26666;50.156;7.700;2022-08-19T00:45:59;100145.22;;;19.76;88.84
40940;BME280;26666;50.156;7.700;2022-08-19T00:51:01;100133.66;;;19.75;89.02
40940;BME280;26666;50.156;7.700;2022-08-19T00:56:03;100139.53;;;19.64;89.55
40940;BME280;26666;50.156;7.700;2022-08-19T01:01:05;100133.38;;;19.70;89.17
40940;BME280;26666;50.156;7.700;2022-08-19T01:06:07;100136.41;;;19.88;89.46
40940;BME280;26666;50.156;7.700;2022-08-19T01:11:08;100133.31;;;19.85;88.97
40940;BME280;26666;50.156;7.700;2022-08-19T01:16:12;100125.53;;;19.68;90.19
40940;BME280;26666;50.156;7.700;2022-08-19T01:26:25;100127.78;;;19.65;89.70
40940;BME280;26666;50.156;7.700;2022-08-19T01:31:28;100115.69;;;19.47;90.39
40940;BME280;26666;50.156;7.700;2022-08-19T01:36:35;100102.38;;;19.54;90.55
40940;BME280;26666;50.156;7.700;2022-08-19T01:41:37;100118.38;;;19.47;90.96
40940;BME280;26666;50.156;7.700;2022-08-19T01:46:39;100113.88;;;19.48;90.71
40940;BME280;26666;50.156;7.700;2022-08-19T01:51:40;100097.34;;;19.44;90.31
40940;BME280;26666;50.156;7.700;2022-08-19T01:56:42;100099.38;;;19.14;91.83
40940;BME280;26666;50.156;7.700;2022-08-19T02:01:43;100089.41;;;19.29;91.27
40940;BME280;26666;50.156;7.700;2022-08-19T02:06:45;100110.38;;;19.26;91.12
40940;BME280;26666;50.156;7.700;2022-08-19T02:11:46;100108.78;;;19.03;92.07
40940;BME280;26666;50.156;7.700;2022-08-19T02:16:48;100116.34;;;19.00;92.65
40940;BME280;26666;50.156;7.700;2022-08-19T02:21:49;100129.63;;;18.86;93.41
40940;BME280;26666;50.156;7.700;2022-08-19T02:26:51;100124.25;;;18.86;93.92
40940;BME280;26666;50.156;7.700;2022-08-19T02:31:53;100125.03;;;18.65;95.04
40940;BME280;26666;50.156;7.700;2022-08-19T02:36:54;100126.00;;;18.79;94.42
40940;BME280;26666;50.156;7.700;2022-08-19T02:41:56;100112.53;;;18.51;96.09
40940;BME280;26666;50.156;7.700;2022-08-19T02:46:57;100120.31;;;18.67;94.86
40940;BME280;26666;50.156;7.700;2022-08-19T02:51:59;100138.47;;;18.50;95.33
40940;BME280;26666;50.156;7.700;2022-08-19T02:57:00;100135.69;;;18.59;94.47
40940;BME280;26666;50.156;7.700;2022-08-19T03:02:02;100146.34;;;18.37;96.09
40940;BME280;26666;50.156;7.700;2022-08-19T03:07:03;100153.81;;;18.27;96.20
40940;BME280;26666;50.156;7.700;2022-08-19T03:12:11;100153.38;;;18.23;96.44
40940;BME280;26666;50.156;7.700;2022-08-19T03:17:13;100146.72;;;18.19;97.22
40940;BME280;26666;50.156;7.700;2022-08-19T03:22:15;100150.41;;;18.18;97.57
40940;BME280;26666;50.156;7.700;2022-08-19T03:27:16;100158.09;;;18.21;97.27
40940;BME280;26666;50.156;7.700;2022-08-19T03:32:18;100148.22;;;18.07;97.51
40940;BME280;26666;50.156;7.700;2022-08-19T03:37:34;100150.59;;;18.17;97.10
40940;BME280;26666;50.156;7.700;2022-08-19T03:42:36;100146.81;;;18.11;97.26
40940;BME280;26666;50.156;7.700;2022-08-19T03:47:57;100154.22;;;17.94;98.27
40940;BME280;26666;50.156;7.700;2022-08-19T03:52:59;100154.41;;;17.92;98.47
40940;BME280;26666;50.156;7.700;2022-08-19T03:58:00;100140.66;;;18.10;96.82
40940;BME280;26666;50.156;7.700;2022-08-19T04:03:02;100151.38;;;17.72;99.66
40940;BME280;26666;50.156;7.700;2022-08-19T04:08:04;100154.72;;;17.74;100.00
40940;BME280;26666;50.156;7.700;2022-08-19T04:13:06;100168.13;;;17.89;99.80
40940;BME280;26666;50.156;7.700;2022-08-19T04:18:10;100178.16;;;17.87;99.64
40940;BME280;26666;50.156;7.700;2022-08-19T04:23:13;100192.81;;;17.91;100.00
40940;BME280;26666;50.156;7.700;2022-08-19T04:28:15;100189.50;;;18.19;98.08
40940;BME280;26666;50.156;7.700;2022-08-19T04:33:22;100189.72;;;18.18;98.50
40940;BME280;26666;50.156;7.700;2022-08-19T04:38:28;100184.03;;;17.83;100.00
40940;BME280;26666;50.156;7.700;2022-08-19T04:43:31;100181.78;;;17.95;99.25
40940;BME280;26666;50.156;7.700;2022-08-19T04:48:34;100181.88;;;17.86;100.00
40940;BME280;26666;50.156;7.700;2022-08-19T04:53:37;100190.38;;;17.67;100.00
40940;BME280;26666;50.156;7.700;2022-08-19T04:58:41;100197.50;;;17.89;100.00
40940;BME280;26666;50.156;7.700;2022-08-19T05:03:43;100189.56;;;17.81;100.00
40940;BME280;26666;50.156;7.700;2022-08-19T05:08:45;100186.28;;;17.94;100.00
40940;BME280;26666;50.156;7.700;2022-08-19T05:13:48;100191.44;;;17.96;99.76
40940;BME280;26666;50.156;7.700;2022-08-19T05:18:50;100198.34;;;17.90;100.00
40940;BME280;26666;50.156;7.700;2022-08-19T05:23:52;100201.13;;;17.97;100.00
40940;BME280;26666;50.156;7.700;2022-08-19T05:28:54;100196.53;;;18.20;99.59
40940;BME280;26666;50.156;7.700;2022-08-19T05:33:57;100201.09;;;18.56;96.92
40940;BME280;26666;50.156;7.700;2022-08-19T05:38:58;100198.44;;;18.41;97.42
40940;BME280;26666;50.156;7.700;2022-08-19T05:44:04;100201.47;;;18.53;96.95
40940;BME280;26666;50.156;7.700;2022-08-19T05:49:07;100200.94;;;18.43;97.73
40940;BME280;26666;50.156;7.700;2022-08-19T05:54:09;100191.31;;;18.63;96.43
40940;BME280;26666;50.156;7.700;2022-08-19T05:59:10;100199.72;;;18.97;94.16
40940;BME280;26666;50.156;7.700;2022-08-19T06:04:12;100203.63;;;18.94;94.38
40940;BME280;26666;50.156;7.700;2022-08-19T06:09:14;100200.75;;;19.39;91.64
40940;BME280;26666;50.156;7.700;2022-08-19T06:14:18;100197.63;;;19.35;91.12
40940;BME280;26666;50.156;7.700;2022-08-19T06:19:29;100210.25;;;19.41;91.17
40940;BME280;26666;50.156;7.700;2022-08-19T06:24:31;100226.72;;;19.60;89.74
40940;BME280;26666;50.156;7.700;2022-08-19T06:29:33;100237.91;;;19.92;88.21
40940;BME280;26666;50.156;7.700;2022-08-19T06:34:35;100249.00;;;20.10;87.36
40940;BME280;26666;50.156;7.700;2022-08-19T06:39:38;100265.84;;;20.04;87.90
40940;BME280;26666;50.156;7.700;2022-08-19T06:44:42;100270.19;;;20.05;88.46
40940;BME280;26666;50.156;7.700;2022-08-19T06:49:49;100275.41;;;20.13;88.00
40940;BME280;26666;50.156;7.700;2022-08-19T06:54:50;100276.81;;;20.37;86.95
40940;BME280;26666;50.156;7.700;2022-08-19T06:59:57;100295.25;;;20.47;86.88
40940;BME280;26666;50.156;7.700;2022-08-19T07:04:58;100284.34;;;20.55;86.41
40940;BME280;26666;50.156;7.700;2022-08-19T07:10:01;100286.09;;;20.70;85.81
40940;BME280;26666;50.156;7.700;2022-08-19T07:15:06;100292.22;;;20.28;87.99
40940;BME280;26666;50.156;7.700;2022-08-19T07:20:09;100290.78;;;20.26;88.27
40940;BME280;26666;50.156;7.700;2022-08-19T07:25:11;100298.25;;;20.72;86.89
40940;BME280;26666;50.156;7.700;2022-08-19T07:30:13;100292.94;;;21.40;83.93
40940;BME280;26666;50.156;7.700;2022-08-19T07:35:14;100302.69;;;22.41;79.39
40940;BME280;26666;50.156;7.700;2022-08-19T07:40:16;100297.75;;;22.18;80.47
40940;BME280;26666;50.156;7.700;2022-08-19T07:45:17;100307.03;;;22.56;78.71
40940;BME280;26666;50.156;7.700;2022-08-19T07:50:20;100306.28;;;24.46;72.47
40940;BME280;26666;50.156;7.700;2022-08-19T07:55:24;100300.31;;;28.32;58.54
40940;BME280;26666;50.156;7.700;2022-08-19T08:00:44;100289.41;;;32.00;48.80
40940;BME280;26666;50.156;7.700;2022-08-19T08:05:47;100285.47;;;34.69;45.10
40940;BME280;26666;50.156;7.700;2022-08-19T08:10:48;100279.84;;;34.55;42.74
40940;BME280;26666;50.156;7.700;2022-08-19T08:15:53;100268.94;;;34.50;41.56
40940;BME280;26666;50.156;7.700;2022-08-19T08:20:57;100272.72;;;31.24;47.44
40940;BME280;26666;50.156;7.700;2022-08-19T08:25:59;100266.97;;;30.32;51.81
40940;BME280;26666;50.156;7.700;2022-08-19T08:31:02;100278.44;;;30.39;49.98
40940;BME280;26666;50.156;7.700;2022-08-19T08:36:11;100278.44;;;29.10;53.45
40940;BME280;26666;50.156;7.700;2022-08-19T08:46:30;100278.25;;;28.28;54.99
40940;BME280;26666;50.156;7.700;2022-08-19T08:51:40;100271.41;;;28.65;54.33
40940;BME280;26666;50.156;7.700;2022-08-19T08:56:44;100265.09;;;28.42;55.30
40940;BME280;26666;50.156;7.700;2022-08-19T09:01:46;100267.19;;;28.74;53.26
40940;BME280;26666;50.156;7.700;2022-08-19T09:12:17;100257.47;;;28.39;53.05
40940;BME280;26666;50.156;7.700;2022-08-19T09:17:29;100253.13;;;27.99;53.82
40940;BME280;26666;50.156;7.700;2022-08-19T09:22:31;100240.75;;;28.08;51.79
40940;BME280;26666;50.156;7.700;2022-08-19T09:27:33;100241.88;;;27.90;51.93
40940;BME280;26666;50.156;7.700;2022-08-19T09:32:43;100243.16;;;28.05;51.64
40940;BME280;26666;50.156;7.700;2022-08-19T09:37:45;100246.28;;;27.97;50.47
40940;BME280;26666;50.156;7.700;2022-08-19T09:42:47;100242.31;;;27.70;51.36
40940;BME280;26666;50.156;7.700;2022-08-19T09:47:51;100240.41;;;28.44;50.61
40940;BME280;26666;50.156;7.700;2022-08-19T09:52:55;100238.63;;;27.77;51.62
40940;BME280;26666;50.156;7.700;2022-08-19T09:58:01;100226.66;;;28.11;51.37
40940;BME280;26666;50.156;7.700;2022-08-19T10:03:03;100244.63;;;28.51;50.91
40940;BME280;26666;50.156;7.700;2022-08-19T10:08:07;100231.78;;;27.74;51.29
40940;BME280;26666;50.156;7.700;2022-08-19T10:13:16;100231.94;;;28.40;49.17
40940;BME280;26666;50.156;7.700;2022-08-19T10:18:20;100218.28;;;28.13;50.31
40940;BME280;26666;50.156;7.700;2022-08-19T10:23:22;100225.72;;;28.23;48.70
40940;BME280;26666;50.156;7.700;2022-08-19T10:28:24;100213.72;;;28.19;48.59
40940;BME280;26666;50.156;7.700;2022-08-19T10:33:25;100203.22;;;28.05;48.12
40940;BME280;26666;50.156;7.700;2022-08-19T10:38:50;100197.94;;;29.09;46.61
40940;BME280;26666;50.156;7.700;2022-08-19T10:43:59;100199.63;;;28.61;46.37
40940;BME280;26666;50.156;7.700;2022-08-19T10:49:05;100198.00;;;28.21;47.54
40940;BME280;26666;50.156;7.700;2022-08-19T10:54:06;100201.97;;;28.13;47.28
40940;BME280;26666;50.156;7.700;2022-08-19T10:59:13;100191.38;;;28.34;45.64
40940;BME280;26666;50.156;7.700;2022-08-19T11:04:15;100180.88;;;28.42;45.16
40940;BME280;26666;50.156;7.700;2022-08-19T11:09:19;100190.88;;;28.15;44.90
40940;BME280;26666;50.156;7.700;2022-08-19T11:14:21;100170.19;;;27.91;44.83
40940;BME280;26666;50.156;7.700;2022-08-19T11:19:26;100172.97;;;27.97;47.17
40940;BME280;26666;50.156;7.700;2022-08-19T11:24:28;100176.22;;;28.16;45.50
40940;BME280;26666;50.156;7.700;2022-08-19T11:29:32;100171.72;;;28.26;45.87
40940;BME280;26666;50.156;7.700;2022-08-19T11:34:33;100175.69;;;28.19;45.72
40940;BME280;26666;50.156;7.700;2022-08-19T11:39:36;100174.63;;;27.81;46.84
40940;BME280;26666;50.156;7.700;2022-08-19T11:44:37;100167.22;;;27.93;47.30
40940;BME280;26666;50.156;7.700;2022-08-19T11:49:39;100158.03;;;27.60;47.52
40940;BME280;26666;50.156;7.700;2022-08-19T11:54:40;100162.72;;;27.65;47.15
40940;BME280;26666;50.156;7.700;2022-08-19T11:59:48;100159.53;;;27.51;47.87
40940;BME280;26666;50.156;7.700;2022-08-19T12:04:49;100156.00;;;27.50;47.97
40940;BME280;26666;50.156;7.700;2022-08-19T12:09:51;100160.84;;;27.48;48.14
40940;BME280;26666;50.156;7.700;2022-08-19T12:14:53;100152.25;;;27.06;49.54
40940;BME280;26666;50.156;7.700;2022-08-19T12:19:54;100155.06;;;26.94;49.71
40940;BME280;26666;50.156;7.700;2022-08-19T12:24:56;100149.19;;;27.31;49.20
40940;BME280;26666;50.156;7.700;2022-08-19T12:29:57;100147.22;;;27.26;48.54
40940;BME280;26666;50.156;7.700;2022-08-19T12:34:59;100132.47;;;27.22;48.93
40940;BME280;26666;50.156;7.700;2022-08-19T12:40:01;100129.69;;;27.17;48.84
40940;BME280;26666;50.156;7.700;2022-08-19T12:45:03;100114.97;;;26.96;49.81
40940;BME280;26666;50.156;7.700;2022-08-19T12:50:08;100119.16;;;27.04;49.59
40940;BME280;26666;50.156;7.700;2022-08-19T12:55:10;100111.66;;;26.94;48.58
40940;BME280;26666;50.156;7.700;2022-08-19T13:00:18;100116.69;;;27.19;49.11
40940;BME280;26666;50.156;7.700;2022-08-19T13:05:23;100108.06;;;27.22;48.31
40940;BME280;26666;50.156;7.700;2022-08-19T13:10:31;100102.97;;;27.26;48.56
40940;BME280;26666;50.156;7.700;2022-08-19T13:15:35;100104.78;;;27.37;48.35
40940;BME280;26666;50.156;7.700;2022-08-19T13:20:38;100098.03;;;26.89;48.54
40940;BME280;26666;50.156;7.700;2022-08-19T13:25:40;100108.06;;;27.39;48.97
40940;BME280;26666;50.156;7.700;2022-08-19T13:30:46;100110.03;;;27.10;48.33
40940;BME280;26666;50.156;7.700;2022-08-19T13:35:50;100119.59;;;27.29;47.71
40940;BME280;26666;50.156;7.700;2022-08-19T13:40:53;100110.69;;;27.17;48.11
40940;BME280;26666;50.156;7.700;2022-08-19T13:45:55;100106.94;;;27.35;48.24
40940;BME280;26666;50.156;7.700;2022-08-19T13:50:56;100102.16;;;27.42;48.36
40940;BME280;26666;50.156;7.700;2022-08-19T13:55:58;100108.72;;;27.46;47.32
40940;BME280;26666;50.156;7.700;2022-08-19T14:00:59;100108.97;;;27.28;47.66
40940;BME280;26666;50.156;7.700;2022-08-19T14:06:01;100106.25;;;27.45;46.88
40940;BME280;26666;50.156;7.700;2022-08-19T14:11:03;100111.53;;;27.34;48.21
40940;BME280;26666;50.156;7.700;2022-08-19T14:16:12;100114.25;;;27.34;47.71
40940;BME280;26666;50.156;7.700;2022-08-19T14:21:16;100114.97;;;27.13;47.96
40940;BME280;26666;50.156;7.700;2022-08-19T14:26:19;100110.63;;;26.95;48.91
40940;BME280;26666;50.156;7.700;2022-08-19T14:31:21;100110.03;;;27.10;47.79
40940;BME280;26666;50.156;7.700;2022-08-19T14:36:27;100104.59;;;27.10;47.58
40940;BME280;26666;50.156;7.700;2022-08-19T14:41:28;100113.22;;;26.90;48.13
40940;BME280;26666;50.156;7.700;2022-08-19T14:46:30;100116.13;;;26.83;48.95
40940;BME280;26666;50.156;7.700;2022-08-19T14:51:31;100114.34;;;26.77;49.22
40940;BME280;26666;50.156;7.700;2022-08-19T14:56:33;100107.66;;;26.80;49.34
40940;BME280;26666;50.156;7.700;2022-08-19T15:01:34;100116.31;;;26.65;49.02
40940;BME280;26666;50.156;7.700;2022-08-19T15:06:37;100117.50;;;26.86;49.00
40940;BME280;26666;50.156;7.700;2022-08-19T15:11:38;100121.19;;;26.80;48.43
40940;BME280;26666;50.156;7.700;2022-08-19T15:16:40;100119.41;;;26.56;49.39
40940;BME280;26666;50.156;7.700;2022-08-19T15:21:41;100123.72;;;26.58;54.93
40940;BME280;26666;50.156;7.700;2022-08-19T15:26:43;100118.31;;;26.58;50.78
40940;BME280;26666;50.156;7.700;2022-08-19T15:31:44;100113.09;;;26.39;48.26
40940;BME280;26666;50.156;7.700;2022-08-19T15:36:49;100106.59;;;26.40;50.11
40940;BME280;26666;50.156;7.700;2022-08-19T15:41:51;100109.41;;;26.16;51.38
40940;BME280;26666;50.156;7.700;2022-08-19T15:46:53;100106.66;;;26.28;50.43
40940;BME280;26666;50.156;7.700;2022-08-19T15:51:54;100107.09;;;26.08;49.94
40940;BME280;26666;50.156;7.700;2022-08-19T15:56:56;100094.97;;;25.99;49.72
40940;BME280;26666;50.156;7.700;2022-08-19T16:01:58;100086.28;;;25.73;53.19
40940;BME280;26666;50.156;7.700;2022-08-19T16:07:01;100096.50;;;25.83;50.62
40940;BME280;26666;50.156;7.700;2022-08-19T16:12:04;100095.78;;;25.88;50.16
40940;BME280;26666;50.156;7.700;2022-08-19T16:17:05;100096.50;;;25.83;50.47
40940;BME280;26666;50.156;7.700;2022-08-19T16:22:07;100090.28;;;25.83;50.44
40940;BME280;26666;50.156;7.700;2022-08-19T16:27:08;100092.88;;;25.77;51.69
40940;BME280;26666;50.156;7.700;2022-08-19T16:32:10;100110.88;;;25.72;51.89
40940;BME280;26666;50.156;7.700;2022-08-19T16:37:13;100101.81;;;25.90;50.95
40940;BME280;26666;50.156;7.700;2022-08-19T16:42:14;100113.00;;;25.70;51.88
40940;BME280;26666;50.156;7.700;2022-08-19T16:47:16;100119.81;;;25.61;50.89
40940;BME280;26666;50.156;7.700;2022-08-19T16:52:18;100121.25;;;25.63;49.83
40940;BME280;26666;50.156;7.700;2022-08-19T17:02:21;100124.66;;;25.47;49.22
40940;BME280;26666;50.156;7.700;2022-08-19T17:07:23;100139.34;;;25.51;48.91
40940;BME280;26666;50.156;7.700;2022-08-19T17:12:25;100138.06;;;25.42;49.10
40940;BME280;26666;50.156;7.700;2022-08-19T17:17:33;100140.41;;;25.26;50.01
40940;BME280;26666;50.156;7.700;2022-08-19T17:22:34;100147.00;;;25.30;50.48
40940;BME280;26666;50.156;7.700;2022-08-19T17:27:36;100140.59;;;25.13;50.04
40940;BME280;26666;50.156;7.700;2022-08-19T17:32:37;100133.97;;;24.97;52.59
40940;BME280;26666;50.156;7.700;2022-08-19T17:37:39;100143.09;;;24.84;53.35
40940;BME280;26666;50.156;7.700;2022-08-19T17:42:40;100150.38;;;24.84;51.69
40940;BME280;26666;50.156;7.700;2022-08-19T17:47:42;100149.94;;;24.87;52.23
40940;BME280;26666;50.156;7.700;2022-08-19T17:52:43;100170.13;;;24.84;52.01
40940;BME280;26666;50.156;7.700;2022-08-19T17:57:45;100164.00;;;24.77;53.19
40940;BME280;26666;50.156;7.700;2022-08-19T18:02:55;100175.53;;;24.54;54.81
40940;BME280;26666;50.156;7.700;2022-08-19T18:07:58;100179.78;;;24.43;54.65
40940;BME280;26666;50.156;7.700;2022-08-19T18:13:00;100188.63;;;24.50;53.36
40940;BME280;26666;50.156;7.700;2022-08-19T18:18:01;100203.13;;;24.37;54.14
40940;BME280;26666;50.156;7.700;2022-08-19T18:23:15;100201.41;;;24.25;54.94
40940;BME280;26666;50.156;7.700;2022-08-19T18:28:36;100216.69;;;24.12;56.86
40940;BME280;26666;50.156;7.700;2022-08-19T18:33:39;100218.31;;;23.95;57.35
40940;BME280;26666;50.156;7.700;2022-08-19T18:38:45;100209.53;;;23.81;57.80
40940;BME280;26666;50.156;7.700;2022-08-19T18:43:46;100234.66;;;23.75;57.99
40940;BME280;26666;50.156;7.700;2022-08-19T18:48:48;100239.66;;;23.78;58.65
40940;BME280;26666;50.156;7.700;2022-08-19T18:53:49;100241.75;;;23.69;57.78
40940;BME280;26666;50.156;7.700;2022-08-19T18:58:51;100255.09;;;23.64;59.66
40940;BME280;26666;50.156;7.700;2022-08-19T19:03:54;100257.66;;;23.52;60.42
40940;BME280;26666;50.156;7.700;2022-08-19T19:08:56;100272.31;;;23.63;59.08
40940;BME280;26666;50.156;7.700;2022-08-19T19:13:59;100270.00;;;23.67;59.68
40940;BME280;26666;50.156;7.700;2022-08-19T19:19:01;100283.03;;;23.70;60.54
40940;BME280;26666;50.156;7.700;2022-08-19T19:24:03;100290.38;;;23.62;59.81
40940;BME280;26666;50.156;7.700;2022-08-19T19:29:04;100285.19;;;23.61;59.43
40940;BME280;26666;50.156;7.700;2022-08-19T19:34:06;100297.19;;;23.65;60.14
40940;BME280;26666;50.156;7.700;2022-08-19T19:39:27;100304.63;;;23.70;61.46
40940;BME280;26666;50.156;7.700;2022-08-19T19:44:49;100302.59;;;23.65;60.84
40940;BME280;26666;50.156;7.700;2022-08-19T19:49:51;100303.41;;;23.66;61.71
40940;BME280;26666;50.156;7.700;2022-08-19T19:55:14;100301.16;;;23.62;61.99
40940;BME280;26666;50.156;7.700;2022-08-19T20:00:16;100308.25;;;23.57;63.90
40940;BME280;26666;50.156;7.700;2022-08-19T20:05:18;100310.59;;;23.47;63.93
40940;BME280;26666;50.156;7.700;2022-08-19T20:10:20;100306.91;;;23.41;64.66
40940;BME280;26666;50.156;7.700;2022-08-19T20:15:22;100315.63;;;23.36;64.97
40940;BME280;26666;50.156;7.700;2022-08-19T20:20:25;100309.41;;;23.36;65.31
40940;BME280;26666;50.156;7.700;2022-08-19T20:25:26;100316.72;;;23.29;65.19
40940;BME280;26666;50.156;7.700;2022-08-19T20:30:28;100321.88;;;23.30;65.74
40940;BME280;26666;50.156;7.700;2022-08-19T20:35:33;100328.16;;;23.24;65.48
40940;BME280;26666;50.156;7.700;2022-08-19T20:40:35;100327.34;;;23.17;66.22
40940;BME280;26666;50.156;7.700;2022-08-19T20:45:37;100331.31;;;23.14;65.56
40940;BME280;26666;50.156;7.700;2022-08-19T20:50:39;100337.09;;;23.18;66.36
40940;BME280;26666;50.156;7.700;2022-08-19T20:55:45;100340.22;;;23.15;66.30
40940;BME280;26666;50.156;7.700;2022-08-19T21:00:49;100337.75;;;23.07;66.40
40940;BME280;26666;50.156;7.700;2022-08-19T21:05:51;100344.41;;;22.97;67.51
40940;BME280;26666;50.156;7.700;2022-08-19T21:10:54;100345.88;;;22.93;67.53
40940;BME280;26666;50.156;7.700;2022-08-19T21:15:56;100352.09;;;22.87;68.13
40940;BME280;26666;50.156;7.700;2022-08-19T21:20:58;100360.84;;;22.76;68.35
40940;BME280;26666;50.156;7.700;2022-08-19T21:26:00;100357.53;;;22.74;68.81
40940;BME280;26666;50.156;7.700;2022-08-19T21:31:03;100353.03;;;22.61;69.25
40940;BME280;26666;50.156;7.700;2022-08-19T21:36:05;100349.06;;;22.57;68.73
40940;BME280;26666;50.156;7.700;2022-08-19T21:41:07;100352.81;;;22.49;69.18
40940;BME280;26666;50.156;7.700;2022-08-19T21:46:09;100358.63;;;22.39;69.67
40940;BME280;26666;50.156;7.700;2022-08-19T21:51:10;100360.69;;;22.37;70.27
40940;BME280;26666;50.156;7.700;2022-08-19T21:56:12;100364.63;;;22.41;70.47
40940;BME280;26666;50.156;7.700;2022-08-19T22:01:13;100365.88;;;22.32;70.44
40940;BME280;26666;50.156;7.700;2022-08-19T22:06:15;100373.53;;;22.42;70.62
40940;BME280;26666;50.156;7.700;2022-08-19T22:11:17;100369.19;;;22.41;70.79
40940;BME280;26666;50.156;7.700;2022-08-19T22:16:19;100361.53;;;22.44;71.64
40940;BME280;26666;50.156;7.700;2022-08-19T22:21:21;100363.78;;;22.41;71.18
40940;BME280;26666;50.156;7.700;2022-08-19T22:26:41;100361.91;;;22.41;71.77
40940;BME280;26666;50.156;7.700;2022-08-19T22:31:43;100344.94;;;22.41;72.55
40940;BME280;26666;50.156;7.700;2022-08-19T22:36:45;100349.31;;;22.35;72.83
40940;BME280;26666;50.156;7.700;2022-08-19T22:41:46;100355.75;;;22.34;72.84
40940;BME280;26666;50.156;7.700;2022-08-19T22:46:48;100355.13;;;22.32;72.94
40940;BME280;26666;50.156;7.700;2022-08-19T22:51:50;100359.44;;;22.33;73.09
40940;BME280;26666;50.156;7.700;2022-08-19T22:56:51;100361.34;;;22.26;73.26
40940;BME280;26666;50.156;7.700;2022-08-19T23:01:53;100345.56;;;22.23;73.13
40940;BME280;26666;50.156;7.700;2022-08-19T23:06:54;100345.56;;;22.23;72.87
40940;BME280;26666;50.156;7.700;2022-08-19T23:11:56;100351.34;;;22.20;73.10
40940;BME280;26666;50.156;7.700;2022-08-19T23:16:57;100346.59;;;22.15;73.25
40940;BME280;26666;50.156;7.700;2022-08-19T23:22:00;100340.19;;;22.03;73.58
40940;BME280;26666;50.156;7.700;2022-08-19T23:27:02;100343.09;;;22.15;73.66
40940;BME280;26666;50.156;7.700;2022-08-19T23:32:03;100337.09;;;22.13;74.21
40940;BME280;26666;50.156;7.700;2022-08-19T23:37:05;100338.34;;;22.03;74.91
40940;BME280;26666;50.156;7.700;2022-08-19T23:42:08;100350.09;;;22.02;75.47
40940;BME280;26666;50.156;7.700;2022-08-19T23:47:10;100351.13;;;21.95;75.77
40940;BME280;26666;50.156;7.700;2022-08-19T23:52:12;100364.81;;;22.00;75.87
40940;BME280;26666;50.156;7.700;2022-08-19T23:57:13;100358.41;;;22.01;76.58
